createdAt,value
2023-02-24T00:02:15.255Z,101015.25
2023-02-24T00:04:44.143Z,101013.13
2023-02-24T00:07:13.960Z,101004.91
2023-02-24T00:09:44.631Z,100998.84
2023-02-24T00:12:15.828Z,100998.03
2023-02-24T00:14:46.124Z,100992.72
2023-02-24T00:17:15.577Z,100981.81
2023-02-24T00:19:44.276Z,100982.59
2023-02-24T00:22:12.859Z,100977.78
2023-02-24T00:24:41.047Z,100982.09
2023-02-24T00:27:11.793Z,100976.78
2023-02-24T00:29:42.669Z,100979.16
2023-02-24T00:32:13.295Z,100970.88
2023-02-24T00:34:43.169Z,100969.09
2023-02-24T00:37:12.230Z,100971.47
2023-02-24T00:39:41.822Z,100966.91
2023-02-24T00:42:11.626Z,100959.72
2023-02-24T00:44:42.933Z,100954.94
2023-02-24T00:47:12.842Z,100953.91
2023-02-24T00:49:43.210Z,100950.19
2023-02-24T00:52:13.881Z,100941.13
2023-02-24T00:54:42.507Z,100941.09
2023-02-24T00:57:11.687Z,100937.88
2023-02-24T00:59:42.556Z,100932.88
2023-02-24T01:02:11.560Z,100927.56
2023-02-24T01:04:40.090Z,100925.38
2023-02-24T01:07:11.226Z,100922.97
2023-02-24T01:09:41.088Z,100917.41
2023-02-24T01:12:39.201Z,100921.59
2023-02-24T01:15:11.194Z,100909.34
2023-02-24T01:17:39.361Z,100902.16
2023-02-24T01:20:16.027Z,100896.88
2023-02-24T01:22:44.785Z,100889.97
2023-02-24T01:25:13.530Z,100888.28
2023-02-24T01:27:41.993Z,100896.72
2023-02-24T01:30:16.424Z,100892.19
2023-02-24T01:32:46.643Z,100882.91
2023-02-24T01:35:15.753Z,100882.25
2023-02-24T01:37:45.475Z,100882.75
2023-02-24T01:40:21.226Z,100880.84
2023-02-24T01:42:49.695Z,100876.88
2023-02-24T01:45:29.736Z,100878.66
2023-02-24T01:48:02.253Z,100870.97
2023-02-24T01:50:30.780Z,100871.22
2023-02-24T01:53:01.371Z,100870.34
2023-02-24T01:55:34.093Z,100865.84
2023-02-24T01:58:06.016Z,100870.84
2023-02-24T02:00:45.151Z,100867.16
2023-02-24T02:03:20.449Z,100867.16
2023-02-24T02:05:49.323Z,100862.84
2023-02-24T02:08:19.542Z,100859.38
2023-02-24T02:10:49.372Z,100853.53
2023-02-24T02:13:21.523Z,100856.44
2023-02-24T02:16:03.084Z,100853.25
2023-02-24T02:18:44.185Z,100851.63
2023-02-24T02:21:38.259Z,100858.47
2023-02-24T02:24:33.324Z,100851.63
2023-02-24T02:27:29.502Z,100849.47
2023-02-24T02:30:31.378Z,100853.44
2023-02-24T02:33:39.517Z,100849.91
2023-02-24T02:36:18.713Z,100857.31
2023-02-24T02:38:57.618Z,100855.16
2023-02-24T02:41:30.454Z,100847.47
2023-02-24T02:44:08.696Z,100844.69
2023-02-24T02:46:42.853Z,100842.25
2023-02-24T02:49:19.125Z,100839.03
2023-02-24T02:51:52.962Z,100844.28
2023-02-24T02:54:28.392Z,100843.75
2023-02-24T02:57:03.281Z,100836.84
2023-02-24T02:59:36.295Z,100834.66
2023-02-24T03:02:15.090Z,100829.88
2023-02-24T03:04:47.492Z,100821.28
2023-02-24T03:07:19.878Z,100826.56
2023-02-24T03:09:52.932Z,100818.28
2023-02-24T03:12:26.088Z,100819.16
2023-02-24T03:14:59.685Z,100824.88
2023-02-24T03:17:32.188Z,100819.25
2023-02-24T03:20:16.410Z,100815.97
2023-02-24T03:22:50.056Z,100806.69
2023-02-24T03:25:19.954Z,100806.38
2023-02-24T03:27:53.027Z,100803.84
2023-02-24T03:30:26.886Z,100797.53
2023-02-24T03:33:01.456Z,100801.22
2023-02-24T03:35:34.399Z,100803.06
2023-02-24T03:38:06.545Z,100802.44
2023-02-24T03:40:36.245Z,100798.66
2023-02-24T03:43:07.682Z,100799.53
2023-02-24T03:45:40.793Z,100801.31
2023-02-24T03:48:12.024Z,100792.34
2023-02-24T03:50:41.068Z,100795.78
2023-02-24T03:53:30.805Z,100795.53
2023-02-24T03:56:06.136Z,100795.28
2023-02-24T03:58:50.815Z,100796.59
2023-02-24T04:01:27.054Z,100792.88
2023-02-24T04:04:01.887Z,100799.16
2023-02-24T04:06:37.175Z,100789.94
2023-02-24T04:09:13.882Z,100794.44
2023-02-24T04:11:48.650Z,100794.19
2023-02-24T04:14:25.344Z,100793.88
2023-02-24T04:17:01.296Z,100789.38
2023-02-24T04:19:33.952Z,100782.16
2023-02-24T04:22:04.188Z,100781.13
2023-02-24T04:24:35.441Z,100775.81
2023-02-24T04:27:06.549Z,100782.97
2023-02-24T04:29:39.204Z,100778.97
2023-02-24T04:32:09.767Z,100774.47
2023-02-24T04:34:37.953Z,100766.25
2023-02-24T04:37:06.054Z,100770.84
2023-02-24T04:39:38.552Z,100771.25
2023-02-24T04:42:07.269Z,100770.97
2023-02-24T04:44:36.185Z,100766.22
2023-02-24T04:47:04.983Z,100769.97
2023-02-24T04:49:34.159Z,100762.03
2023-02-24T04:52:02.520Z,100768.31
2023-02-24T04:54:30.626Z,100764.31
2023-02-24T04:57:00.137Z,100763.81
2023-02-24T04:59:29.167Z,100761.91
2023-02-24T05:02:01.568Z,100766.56
2023-02-24T05:04:31.986Z,100763.25
2023-02-24T05:07:00.884Z,100749.91
2023-02-24T05:09:30.282Z,100762.34
2023-02-24T05:12:00.532Z,100755.81
2023-02-24T05:14:28.783Z,100758.81
2023-02-24T05:17:00.617Z,100758.22
2023-02-24T05:19:46.318Z,100754.94
2023-02-24T05:22:17.062Z,100761.47
2023-02-24T05:24:48.045Z,100765.78
2023-02-24T05:27:17.820Z,100754.78
2023-02-24T05:29:46.235Z,100755.72
2023-02-24T05:32:16.895Z,100754.03
2023-02-24T05:34:45.071Z,100758.44
2023-02-24T05:37:16.613Z,100759.44
2023-02-24T05:39:44.920Z,100761.44
2023-02-24T05:42:13.157Z,100754.44
2023-02-24T05:44:42.703Z,100754.31
2023-02-24T05:47:11.011Z,100753.56
2023-02-24T05:49:39.340Z,100751.72
2023-02-24T05:52:10.214Z,100751.47
2023-02-24T05:54:40.648Z,100744.81
2023-02-24T05:57:12.107Z,100751.41
2023-02-24T05:59:41.273Z,100746.88
2023-02-24T06:02:13.866Z,100751.78
2023-02-24T06:04:51.137Z,100749.78
2023-02-24T06:07:22.938Z,100748.16
2023-02-24T06:09:54.097Z,100753.16
2023-02-24T06:12:23.654Z,100749.44
2023-02-24T06:14:53.156Z,100757.31
2023-02-24T06:17:24.649Z,100754.31
2023-02-24T06:19:55.244Z,100751.38
2023-02-24T06:22:25.519Z,100759.25
2023-02-24T06:24:54.907Z,100754.78
2023-02-24T06:27:25.070Z,100760.63
2023-02-24T06:29:55.389Z,100763.78
2023-02-24T06:32:27.450Z,100763.78
2023-02-24T06:34:57.272Z,100755.72
2023-02-24T06:37:25.911Z,100755.72
2023-02-24T06:39:54.197Z,100755.66
2023-02-24T06:42:22.303Z,100750.50
2023-02-24T06:44:50.543Z,100744.53
2023-02-24T06:47:18.628Z,100747.28
2023-02-24T06:49:48.866Z,100748.88
2023-02-24T06:52:19.219Z,100745.69
2023-02-24T06:54:49.813Z,100740.25
2023-02-24T06:57:20.469Z,100737.94
2023-02-24T06:59:49.100Z,100735.38
2023-02-24T07:02:17.817Z,100734.03
2023-02-24T07:04:47.760Z,100728.53
2023-02-24T07:07:17.406Z,100733.28
2023-02-24T07:09:45.891Z,100722.50
2023-02-24T07:12:15.683Z,100721.59
2023-02-24T07:14:44.114Z,100717.78
2023-02-24T07:17:14.871Z,100718.22
2023-02-24T07:19:44.198Z,100717.91
2023-02-24T07:22:15.343Z,100718.06
2023-02-24T07:24:46.422Z,100716.03
2023-02-24T07:27:22.685Z,100716.72
2023-02-24T07:29:53.649Z,100712.53
2023-02-24T07:32:23.572Z,100709.03
2023-02-24T07:34:51.791Z,100712.09
2023-02-24T07:37:23.670Z,100713.34
2023-02-24T07:39:51.864Z,100708.84
2023-02-24T07:42:20.289Z,100702.94
2023-02-24T07:44:49.447Z,100705.16
2023-02-24T07:47:17.912Z,100697.44
2023-02-24T07:49:46.104Z,100699.41
2023-02-24T07:52:14.407Z,100695.63
2023-02-24T07:54:44.316Z,100691.53
2023-02-24T07:57:14.154Z,100693.03
2023-02-24T07:59:47.261Z,100692.81
2023-02-24T08:02:16.426Z,100692.94
2023-02-24T08:04:50.199Z,100692.59
2023-02-24T08:07:25.244Z,100689.66
2023-02-24T08:10:24.601Z,100687.38
2023-02-24T08:12:55.957Z,100681.94
2023-02-24T08:15:25.727Z,100678.44
2023-02-24T08:17:59.624Z,100683.38
2023-02-24T08:20:30.143Z,100678.94
2023-02-24T08:22:58.444Z,100668.59
2023-02-24T08:25:36.581Z,100673.78
2023-02-24T08:28:09.285Z,100669.47
2023-02-24T08:30:40.035Z,100656.91
2023-02-24T08:33:10.141Z,100666.59
2023-02-24T08:35:44.864Z,100663.91
2023-02-24T08:38:16.643Z,100667.47
2023-02-24T08:40:51.579Z,100661.94
2023-02-24T08:43:33.081Z,100652.78
2023-02-24T08:46:04.953Z,100652.00
2023-02-24T08:48:38.682Z,100651.53
2023-02-24T08:51:10.985Z,100642.34
2023-02-24T08:53:40.885Z,100645.13
2023-02-24T08:56:12.678Z,100645.75
2023-02-24T08:58:47.511Z,100649.06
2023-02-24T09:01:24.731Z,100659.72
2023-02-24T09:03:56.364Z,100647.41
2023-02-24T09:06:35.218Z,100648.69
2023-02-24T09:09:18.823Z,100643.88
2023-02-24T09:11:56.165Z,100650.16
2023-02-24T09:14:28.520Z,100640.13
2023-02-24T09:17:07.032Z,100638.75
2023-02-24T09:20:02.727Z,100645.53
2023-02-24T09:22:33.113Z,100641.66
2023-02-24T09:25:18.998Z,100631.88
2023-02-24T09:27:52.612Z,100633.25
2023-02-24T09:30:38.750Z,100629.75
2023-02-24T09:33:17.976Z,100628.34
2023-02-24T09:35:48.041Z,100621.88
2023-02-24T09:38:17.354Z,100619.59
2023-02-24T09:40:50.356Z,100621.59
2023-02-24T09:43:24.696Z,100611.53
2023-02-24T09:45:59.631Z,100610.44
2023-02-24T09:48:43.963Z,100608.28
2023-02-24T09:51:23.148Z,100601.13
2023-02-24T09:53:54.655Z,100604.94
2023-02-24T09:56:30.218Z,100605.47
2023-02-24T09:59:12.775Z,100593.22
2023-02-24T10:01:49.451Z,100593.75
2023-02-24T10:04:49.235Z,100597.56
2023-02-24T10:07:21.348Z,100594.81
2023-02-24T10:09:54.049Z,100585.28
2023-02-24T10:12:27.249Z,100578.97
2023-02-24T10:15:15.241Z,100572.97
2023-02-24T10:17:47.613Z,100570.31
2023-02-24T10:20:31.248Z,100566.38
2023-02-24T10:23:09.799Z,100557.31
2023-02-24T10:25:54.326Z,100555.03
2023-02-24T10:28:36.085Z,100542.50
2023-02-24T10:31:20.431Z,100547.72
2023-02-24T10:33:49.142Z,100538.63
2023-02-24T10:36:26.983Z,100535.53
2023-02-24T10:38:56.117Z,100527.16
2023-02-24T10:41:28.857Z,100523.72
2023-02-24T10:43:57.909Z,100520.47
2023-02-24T10:46:42.885Z,100522.25
2023-02-24T10:49:16.947Z,100511.66
2023-02-24T10:51:53.668Z,100506.22
2023-02-24T10:55:05.231Z,100499.75
2023-02-24T10:57:58.206Z,100495.63
2023-02-24T11:00:51.937Z,100489.06
2023-02-24T11:03:36.180Z,100490.09
2023-02-24T11:06:30.553Z,100487.44
2023-02-24T11:09:19.342Z,100486.84
2023-02-24T11:12:06.229Z,100475.69
2023-02-24T11:15:08.122Z,100475.13
2023-02-24T11:17:38.690Z,100463.03
2023-02-24T11:20:22.871Z,100458.28
2023-02-24T11:22:55.917Z,100457.41
2023-02-24T11:25:27.339Z,100448.56
2023-02-24T11:27:57.374Z,100453.34
2023-02-24T11:30:42.656Z,100444.41
2023-02-24T11:33:23.462Z,100440.28
2023-02-24T11:36:05.284Z,100436.00
2023-02-24T11:38:42.529Z,100421.19
2023-02-24T11:41:20.737Z,100426.22
2023-02-24T11:43:59.132Z,100427.28
2023-02-24T11:46:36.358Z,100425.09
2023-02-24T11:49:14.646Z,100409.59
2023-02-24T11:51:46.160Z,100409.44
2023-02-24T11:54:17.798Z,100407.44
2023-02-24T11:56:48.255Z,100399.50
2023-02-24T11:59:22.434Z,100397.53
2023-02-24T12:01:58.123Z,100404.09
2023-02-24T12:04:30.327Z,100405.47
2023-02-24T12:07:06.920Z,100394.19
2023-02-24T12:09:42.695Z,100391.22
2023-02-24T12:12:16.586Z,100394.59
2023-02-24T12:14:51.826Z,100383.59
2023-02-24T12:17:27.124Z,100383.75
2023-02-24T12:20:02.046Z,100374.28
2023-02-24T12:22:43.604Z,100374.44
2023-02-24T12:25:15.100Z,100367.19
2023-02-24T12:27:57.832Z,100361.28
2023-02-24T12:30:50.996Z,100362.88
2023-02-24T12:33:32.800Z,100360.81
2023-02-24T12:36:11.240Z,100354.56
2023-02-24T12:38:56.857Z,100351.59
2023-02-24T12:41:40.591Z,100345.16
2023-02-24T12:44:20.430Z,100347.66
2023-02-24T12:46:57.396Z,100337.34
2023-02-24T12:49:53.954Z,100332.69
2023-02-24T12:52:28.779Z,100329.44
2023-02-24T12:55:09.623Z,100336.53
2023-02-24T12:57:48.534Z,100340.31
2023-02-24T13:00:23.967Z,100330.91
2023-02-24T13:03:02.098Z,100331.69
2023-02-24T13:05:35.676Z,100335.44
2023-02-24T13:08:19.769Z,100333.47
2023-02-24T13:10:59.807Z,100324.94
2023-02-24T13:13:35.878Z,100320.06
2023-02-24T13:16:04.176Z,100322.88
2023-02-24T13:18:34.922Z,100320.16
2023-02-24T13:21:08.904Z,100311.72
2023-02-24T13:23:38.627Z,100320.13
2023-02-24T13:26:08.377Z,100310.13
2023-02-24T13:28:38.617Z,100310.91
2023-02-24T13:31:09.326Z,100314.19
2023-02-24T13:33:39.133Z,100314.22
2023-02-24T13:36:16.356Z,100303.44
2023-02-24T13:38:46.090Z,100308.06
2023-02-24T13:41:40.827Z,100304.78
2023-02-24T13:44:28.892Z,100303.00
2023-02-24T13:47:18.311Z,100303.31
2023-02-24T13:50:01.365Z,100297.72
2023-02-24T13:52:45.368Z,100285.91
2023-02-24T13:55:25.433Z,100285.31
2023-02-24T13:58:19.774Z,100284.81
2023-02-24T14:01:08.333Z,100288.81
2023-02-24T14:03:39.817Z,100289.66
2023-02-24T14:06:16.027Z,100287.28
2023-02-24T14:08:47.120Z,100294.50
2023-02-24T14:11:18.133Z,100281.88
2023-02-24T14:13:50.874Z,100285.22
2023-02-24T14:16:23.064Z,100276.53
2023-02-24T14:18:56.862Z,100279.41
2023-02-24T14:21:27.136Z,100286.81
2023-02-24T14:24:00.047Z,100275.75
2023-02-24T14:26:29.365Z,100275.47
2023-02-24T14:29:01.733Z,100271.16
2023-02-24T14:31:31.311Z,100270.47
2023-02-24T14:34:02.534Z,100268.94
2023-02-24T14:36:34.466Z,100276.81
2023-02-24T14:39:10.477Z,100266.50
2023-02-24T14:41:38.581Z,100269.84
2023-02-24T14:44:18.919Z,100261.97
2023-02-24T14:46:48.798Z,100250.13
2023-02-24T14:49:21.430Z,100250.88
2023-02-24T14:51:55.009Z,100253.25
2023-02-24T14:54:34.933Z,100244.34
2023-02-24T14:57:04.025Z,100251.72
2023-02-24T14:59:36.934Z,100252.00
2023-02-24T15:02:15.088Z,100252.16
2023-02-24T15:04:44.773Z,100250.13
2023-02-24T15:07:19.261Z,100240.84
2023-02-24T15:09:49.264Z,100235.97
2023-02-24T15:12:24.455Z,100232.66
2023-02-24T15:14:58.526Z,100230.25
2023-02-24T15:17:26.906Z,100217.63
2023-02-24T15:19:57.655Z,100217.16
2023-02-24T15:22:28.206Z,100220.53
2023-02-24T15:25:09.170Z,100219.50
2023-02-24T15:27:37.245Z,100215.06
2023-02-24T15:30:09.847Z,100213.13
2023-02-24T15:32:39.625Z,100222.81
2023-02-24T15:35:08.853Z,100213.22
2023-02-24T15:37:43.296Z,100211.75
2023-02-24T15:40:20.992Z,100210.66
2023-02-24T15:42:53.377Z,100211.53
2023-02-24T15:45:31.503Z,100204.34
2023-02-24T15:48:01.374Z,100210.13
2023-02-24T15:50:30.890Z,100209.94
2023-02-24T15:53:02.591Z,100210.47
2023-02-24T15:55:32.681Z,100211.13
2023-02-24T15:58:03.796Z,100218.13
2023-02-24T16:00:33.320Z,100210.34
2023-02-24T16:03:01.739Z,100212.09
2023-02-24T16:05:29.851Z,100202.59
2023-02-24T16:07:57.988Z,100200.34
2023-02-24T16:10:30.269Z,100191.53
2023-02-24T16:13:00.841Z,100200.56
2023-02-24T16:15:31.598Z,100195.81
2023-02-24T16:18:03.220Z,100208.59
2023-02-24T16:20:33.659Z,100204.56
2023-02-24T16:23:03.251Z,100204.28
2023-02-24T16:25:35.881Z,100199.78
2023-02-24T16:28:03.970Z,100201.69
2023-02-24T16:30:32.341Z,100207.28
2023-02-24T16:33:02.710Z,100207.50
2023-02-24T16:35:31.057Z,100202.16
2023-02-24T16:38:00.440Z,100203.50
2023-02-24T16:40:32.049Z,100209.59
2023-02-24T16:43:00.373Z,100195.81
2023-02-24T16:45:30.519Z,100200.84
2023-02-24T16:48:02.629Z,100209.84
2023-02-24T16:50:34.381Z,100208.88
2023-02-24T16:53:02.437Z,100201.44
2023-02-24T16:55:30.501Z,100201.25
2023-02-24T16:57:58.707Z,100197.53
2023-02-24T17:00:27.049Z,100196.84
2023-02-24T17:02:55.429Z,100199.91
2023-02-24T17:05:27.519Z,100208.41
2023-02-24T17:07:57.630Z,100211.16
2023-02-24T17:10:26.954Z,100208.47
2023-02-24T17:12:55.105Z,100198.09
2023-02-24T17:15:25.222Z,100202.59
2023-02-24T17:17:53.262Z,100206.38
2023-02-24T17:20:22.295Z,100203.66
2023-02-24T17:22:51.823Z,100206.22
2023-02-24T17:25:22.998Z,100207.25
2023-02-24T17:27:53.264Z,100204.53
2023-02-24T17:30:24.880Z,100205.59
2023-02-24T17:32:53.084Z,100200.00
2023-02-24T17:35:21.342Z,100192.00
2023-02-24T17:37:49.560Z,100197.91
2023-02-24T17:40:19.595Z,100196.84
2023-02-24T17:42:47.932Z,100189.38
2023-02-24T17:45:16.640Z,100191.50
2023-02-24T17:47:44.851Z,100193.31
2023-02-24T17:50:14.297Z,100196.19
2023-02-24T17:52:42.772Z,100191.09
2023-02-24T17:55:11.416Z,100193.94
2023-02-24T17:57:40.979Z,100178.88
2023-02-24T18:00:10.784Z,100173.84
2023-02-24T18:02:39.802Z,100173.31
2023-02-24T18:05:08.678Z,100179.94
2023-02-24T18:07:36.921Z,100177.16
2023-02-24T18:10:06.630Z,100178.91
2023-02-24T18:12:34.758Z,100174.13
2023-02-24T18:15:09.194Z,100171.19
2023-02-24T18:17:40.231Z,100165.97
2023-02-24T18:20:12.164Z,100170.94
2023-02-24T18:22:40.310Z,100167.84
2023-02-24T18:25:09.061Z,100165.75
2023-02-24T18:27:37.331Z,100164.97
2023-02-24T18:30:10.158Z,100172.19
2023-02-24T18:32:44.692Z,100161.19
2023-02-24T18:35:13.436Z,100161.94
2023-02-24T18:37:41.624Z,100159.84
2023-02-24T18:40:12.231Z,100156.09
2023-02-24T18:42:41.586Z,100155.03
2023-02-24T18:45:11.797Z,100153.16
2023-02-24T18:47:39.925Z,100151.31
2023-02-24T18:50:09.580Z,100160.28
2023-02-24T18:52:37.721Z,100158.09
2023-02-24T18:55:06.654Z,100160.81
2023-02-24T18:57:35.123Z,100154.69
2023-02-24T19:00:04.851Z,100148.00
2023-02-24T19:02:34.400Z,100146.97
2023-02-24T19:05:02.555Z,100148.09
2023-02-24T19:07:30.611Z,100157.63
2023-02-24T19:09:58.683Z,100146.69
2023-02-24T19:12:27.075Z,100142.75
2023-02-24T19:14:55.194Z,100148.66
2023-02-24T19:17:23.288Z,100139.56
2023-02-24T19:19:54.113Z,100143.25
2023-02-24T19:22:22.362Z,100132.44
2023-02-24T19:24:50.528Z,100132.88
2023-02-24T19:27:18.806Z,100132.50
2023-02-24T19:29:46.923Z,100137.25
2023-02-24T19:32:15.233Z,100133.84
2023-02-24T19:34:43.949Z,100126.34
2023-02-24T19:37:13.609Z,100127.75
2023-02-24T19:39:41.736Z,100131.47
2023-02-24T19:42:09.918Z,100126.94
2023-02-24T19:44:38.158Z,100124.13
2023-02-24T19:47:06.430Z,100125.69
2023-02-24T19:49:34.548Z,100126.25
2023-02-24T19:52:02.787Z,100125.50
2023-02-24T19:54:32.252Z,100118.63
2023-02-24T19:57:00.438Z,100111.78
2023-02-24T19:59:28.619Z,100114.44
2023-02-24T20:01:56.753Z,100113.81
2023-02-24T20:04:25.551Z,100113.25
2023-02-24T20:06:53.673Z,100098.34
2023-02-24T20:09:22.649Z,100103.78
2023-02-24T20:11:54.302Z,100103.84
2023-02-24T20:14:22.585Z,100100.66
2023-02-24T20:16:50.824Z,100094.03
2023-02-24T20:19:19.059Z,100094.63
2023-02-24T20:21:47.568Z,100099.44
2023-02-24T20:24:17.852Z,100093.38
2023-02-24T20:26:49.618Z,100092.38
2023-02-24T20:29:22.201Z,100083.16
2023-02-24T20:31:50.975Z,100085.88
2023-02-24T20:34:19.198Z,100087.16
2023-02-24T20:36:47.344Z,100083.75
2023-02-24T20:39:15.388Z,100080.34
2023-02-24T20:41:44.117Z,100074.22
2023-02-24T20:44:12.910Z,100067.91
2023-02-24T20:46:42.475Z,100068.75
2023-02-24T20:49:12.858Z,100069.56
2023-02-24T20:51:40.939Z,100061.88
2023-02-24T20:54:13.621Z,100059.72
2023-02-24T20:56:43.345Z,100056.00
2023-02-24T20:59:14.213Z,100049.09
2023-02-24T21:01:45.826Z,100049.31
2023-02-24T21:04:16.974Z,100046.50
2023-02-24T21:06:46.726Z,100043.28
2023-02-24T21:09:15.256Z,100042.50
2023-02-24T21:11:43.454Z,100036.66
2023-02-24T21:14:15.894Z,100030.00
2023-02-24T21:16:46.960Z,100032.66
2023-02-24T21:19:15.042Z,100033.72
2023-02-24T21:21:43.304Z,100023.66
2023-02-24T21:24:11.431Z,100022.13
2023-02-24T21:26:39.526Z,100024.81
2023-02-24T21:29:07.944Z,100016.84
2023-02-24T21:31:36.397Z,100008.19
2023-02-24T21:34:06.047Z,100004.19
2023-02-24T21:36:34.173Z,100005.47
2023-02-24T21:39:02.384Z,100001.53
2023-02-24T21:41:30.636Z,100004.69
2023-02-24T21:44:00.649Z,100004.91
2023-02-24T21:46:29.202Z,99996.22
2023-02-24T21:48:59.101Z,99994.00
2023-02-24T21:51:30.023Z,99991.78
2023-02-24T21:53:58.488Z,99981.69
2023-02-24T21:56:29.228Z,99980.09
2023-02-24T21:59:00.176Z,99978.91
2023-02-24T22:01:30.329Z,99970.38
2023-02-24T22:04:01.389Z,99966.13
2023-02-24T22:06:33.345Z,99966.59
2023-02-24T22:09:02.736Z,99963.66
2023-02-24T22:11:32.305Z,99962.13
2023-02-24T22:14:00.433Z,99958.44
2023-02-24T22:16:29.598Z,99948.56
2023-02-24T22:18:57.924Z,99957.50
2023-02-24T22:21:29.465Z,99950.53
2023-02-24T22:24:01.100Z,99947.97
2023-02-24T22:26:30.700Z,99948.66
2023-02-24T22:28:59.293Z,99953.72
2023-02-24T22:31:30.032Z,99942.22
2023-02-24T22:33:58.642Z,99947.09
2023-02-24T22:36:30.130Z,99946.38
2023-02-24T22:39:00.743Z,99948.53
2023-02-24T22:41:31.331Z,99941.16
2023-02-24T22:43:59.989Z,99948.09
2023-02-24T22:46:31.018Z,99942.00
2023-02-24T22:48:59.835Z,99952.66
2023-02-24T22:51:28.729Z,99942.81
2023-02-24T22:53:57.667Z,99940.41
2023-02-24T22:56:29.060Z,99940.94
2023-02-24T22:58:58.281Z,99928.75
2023-02-24T23:01:29.352Z,99924.28
2023-02-24T23:03:59.630Z,99925.28
2023-02-24T23:06:28.184Z,99918.84
2023-02-24T23:08:57.950Z,99918.28
2023-02-24T23:11:28.821Z,99913.50
2023-02-24T23:13:58.999Z,99915.69
2023-02-24T23:16:29.535Z,99909.13
2023-02-24T23:18:59.326Z,99901.19
2023-02-24T23:21:33.799Z,99901.34
2023-02-24T23:24:01.966Z,99901.91
2023-02-24T23:26:32.645Z,99893.13
2023-02-24T23:29:00.844Z,99891.03
2023-02-24T23:31:29.579Z,99890.13
2023-02-24T23:33:58.194Z,99893.16
2023-02-24T23:36:27.288Z,99886.06
2023-02-24T23:38:55.384Z,99875.00
2023-02-24T23:41:23.632Z,99878.50
2023-02-24T23:43:53.435Z,99873.50
2023-02-24T23:46:22.032Z,99872.44
2023-02-24T23:48:52.826Z,99873.28
2023-02-24T23:51:21.915Z,99874.09
2023-02-24T23:53:50.165Z,99870.94
2023-02-24T23:56:19.897Z,99871.66
2023-02-24T23:58:53.100Z,99868.84
